チャーチル の空港の天気 - METARとTAF

チャーチル空港 ( CYYQ / YYQ ) - カナダ マニトバ州Churchill
飛行場実況気象(Metar)
観測時間10/16 01:14 CDT (10/16 06:14 UTC)
風向・風速北 7m/s
視程10km以上
天気現象弱い雪
全天を覆う雲 雲底高度 820m
気温-2℃
湿度80%
気圧1005.9hPa
METARCYYQ 160614Z 35013KT 10SM -SN OVC027 M02/M05 A2969 RMK SC8 -SN INTMT SLP059
過去の天気等 Google飛行場航空写真 Wunderground天気予報

過去48時間のMETAR

飛行場予報(TAF)
発表時間: 10/16 00:44 CDT (10/16 05:44 UTC)
予報対象時間: 16日1時 CDT ~ 17日1時 CDT
風向・風速不定 2m/s
視程10km以上
天気現象弱い雪
全天を覆う雲 雲底高度 760m
16日1時 CDT ~ 16日5時 CDT に一時的に
視程3220m
天気現象弱い雪
全天を覆う雲 雲底高度 460m
16日1時 CDT ~ 16日3時 CDT に徐々に
風向・風速北北西 8m/s 瞬間風速 13m/s
16日5時 CDT から
風向・風速北北西 13m/s 瞬間風速 18m/s
視程6440m
天気現象弱い雪
全天を覆う雲 雲底高度 610m
16日5時 CDT ~ 16日16時 CDT に一時的に
視程3220m
天気現象弱い雪 高い地吹雪
全天を覆う雲 雲底高度 240m
16日16時 CDT から
風向・風速北北西 10m/s 瞬間風速 15m/s
視程10km以上
天気現象弱い雪
全天を覆う雲 雲底高度 760m
TAF CYYQ 160544Z 1606/1706 VRB03KT 6SM -SN OVC025
TEMPO 1606/1610 2SM -SN OVC015
BECMG 1606/1608 34015G25KT
FM161000 34025G35KT 4SM -SN OVC020
TEMPO 1610/1621 2SM -SN BLSN OVC008
FM162100 34020G30KT 6SM -SN OVC025 RMK NXT FCST BY 161200Z